createdAt,value
2024-02-10T00:02:19.590Z,0.60
2024-02-10T00:04:48.073Z,0.30
2024-02-10T00:07:18.297Z,0.43
2024-02-10T00:09:47.552Z,0.30
2024-02-10T00:12:16.468Z,0.15
2024-02-10T00:14:45.281Z,0.32
2024-02-10T00:17:12.921Z,0.45
2024-02-10T00:19:48.013Z,0.20
2024-02-10T00:22:18.254Z,0.40
2024-02-10T00:24:45.963Z,0.43
2024-02-10T00:27:18.263Z,0.40
2024-02-10T00:29:47.330Z,0.45
2024-02-10T00:32:15.332Z,0.20
2024-02-10T00:34:43.314Z,0.13
2024-02-10T00:37:11.543Z,0.32
2024-02-10T00:39:39.166Z,0.45
2024-02-10T00:42:06.909Z,0.50
2024-02-10T00:44:35.505Z,0.32
2024-02-10T00:47:06.095Z,0.50
2024-02-10T00:49:34.458Z,0.25
2024-02-10T00:52:02.003Z,0.40
2024-02-10T00:54:30.511Z,0.45
2024-02-10T00:56:58.310Z,0.32
2024-02-10T00:59:25.831Z,0.20
2024-02-10T01:01:53.598Z,0.43
2024-02-10T01:04:22.823Z,0.30
2024-02-10T01:06:50.799Z,0.22
2024-02-10T01:09:18.458Z,0.30
2024-02-10T01:11:47.388Z,0.30
2024-02-10T01:14:15.425Z,0.40
2024-02-10T01:16:44.716Z,0.50
2024-02-10T01:19:12.842Z,0.22
2024-02-10T01:21:41.901Z,0.20
2024-02-10T01:24:09.465Z,0.22
2024-02-10T01:26:37.321Z,0.57
2024-02-10T01:29:09.555Z,0.32
2024-02-10T01:31:37.597Z,0.32
2024-02-10T01:34:05.447Z,0.50
2024-02-10T01:36:34.381Z,0.20
2024-02-10T01:39:03.522Z,0.55
2024-02-10T01:41:31.110Z,0.25
2024-02-10T01:43:59.839Z,0.22
2024-02-10T01:46:27.714Z,0.50
2024-02-10T01:48:56.668Z,0.30
2024-02-10T01:51:24.772Z,0.20
2024-02-10T01:53:53.005Z,0.40
2024-02-10T01:56:21.947Z,0.25
2024-02-10T01:58:50.136Z,0.28
2024-02-10T02:01:18.101Z,0.30
2024-02-10T02:03:48.211Z,0.32
2024-02-10T02:06:18.826Z,0.43
2024-02-10T02:08:48.100Z,0.20
2024-02-10T02:11:15.686Z,0.15
2024-02-10T02:13:44.867Z,0.38
2024-02-10T02:16:13.230Z,0.35
2024-02-10T02:18:42.853Z,0.20
2024-02-10T02:21:10.445Z,0.25
2024-02-10T02:23:39.283Z,0.30
2024-02-10T02:26:06.839Z,0.22
2024-02-10T02:28:34.503Z,0.43
2024-02-10T02:31:05.285Z,0.22
2024-02-10T02:33:34.186Z,0.20
2024-02-10T02:36:01.900Z,0.32
2024-02-10T02:38:29.557Z,0.32
2024-02-10T02:40:58.735Z,0.35
2024-02-10T02:43:26.416Z,0.22
2024-02-10T02:45:53.987Z,0.22
2024-02-10T02:48:21.608Z,0.30
2024-02-10T02:50:49.313Z,0.30
2024-02-10T02:53:17.083Z,0.32
2024-02-10T02:55:46.803Z,0.30
2024-02-10T02:58:16.216Z,0.22
2024-02-10T03:00:43.793Z,0.30
2024-02-10T03:03:11.356Z,0.38
2024-02-10T03:05:41.681Z,0.47
2024-02-10T03:08:09.240Z,0.55
2024-02-10T03:10:36.839Z,0.35
2024-02-10T03:13:04.677Z,0.38
2024-02-10T03:15:38.962Z,0.43
2024-02-10T03:18:07.154Z,0.22
2024-02-10T03:20:36.353Z,0.43
2024-02-10T03:23:04.503Z,0.70
2024-02-10T03:25:33.089Z,0.70
2024-02-10T03:28:04.690Z,0.47
2024-02-10T03:30:33.869Z,0.32
2024-02-10T03:35:29.889Z,0.40
2024-02-10T03:37:57.482Z,0.43
2024-02-10T03:40:25.070Z,0.22
2024-02-10T03:42:52.593Z,0.30
2024-02-10T03:45:20.358Z,0.13
2024-02-10T03:47:51.990Z,0.43
2024-02-10T03:50:19.869Z,0.45
2024-02-10T03:52:47.765Z,0.22
2024-02-10T03:55:15.748Z,0.57
2024-02-10T03:57:43.377Z,0.38
2024-02-10T04:00:21.390Z,0.22
2024-02-10T04:02:50.330Z,0.40
2024-02-10T04:05:18.103Z,0.45
2024-02-10T04:07:50.875Z,0.30
2024-02-10T04:10:19.109Z,0.30
2024-02-10T04:12:48.143Z,0.45
2024-02-10T04:15:16.000Z,0.32
2024-02-10T04:17:54.430Z,0.45
2024-02-10T04:20:24.478Z,0.40
2024-02-10T04:22:52.301Z,0.30
2024-02-10T04:25:20.197Z,0.22
2024-02-10T04:27:47.833Z,0.55
2024-02-10T04:30:15.453Z,0.30
2024-02-10T04:32:47.647Z,0.22
2024-02-10T04:35:16.019Z,0.20
2024-02-10T04:37:52.435Z,0.20
2024-02-10T04:40:22.514Z,0.30
2024-02-10T04:42:50.064Z,0.98
2024-02-10T04:45:27.409Z,0.43
2024-02-10T04:47:55.253Z,0.40
2024-02-10T04:50:23.263Z,0.22
2024-02-10T04:52:52.854Z,0.50
2024-02-10T04:55:21.036Z,0.22
2024-02-10T04:57:49.043Z,0.32
2024-02-10T05:00:17.719Z,0.20
2024-02-10T05:02:46.072Z,0.20
2024-02-10T05:05:13.961Z,0.35
2024-02-10T05:07:42.263Z,0.20
2024-02-10T05:10:12.575Z,0.43
2024-02-10T05:12:40.883Z,0.20
2024-02-10T05:15:10.853Z,0.20
2024-02-10T05:17:42.297Z,0.30
2024-02-10T05:20:14.644Z,0.20
2024-02-10T05:25:14.617Z,0.30
2024-02-10T05:27:46.660Z,0.32
2024-02-10T05:30:21.487Z,0.20
2024-02-10T05:32:51.341Z,0.30
2024-02-10T05:35:20.436Z,0.47
2024-02-10T05:37:49.077Z,0.30
2024-02-10T05:40:19.363Z,0.20
2024-02-10T05:42:48.164Z,0.40
2024-02-10T05:45:18.111Z,0.32
2024-02-10T05:47:46.327Z,0.30
2024-02-10T05:50:16.734Z,0.70
2024-02-10T05:52:45.192Z,0.43
2024-02-10T05:55:14.390Z,0.32
2024-02-10T05:57:43.264Z,0.35
2024-02-10T06:00:12.165Z,0.52
2024-02-10T06:02:43.613Z,0.45
2024-02-10T06:05:12.408Z,0.40
2024-02-10T06:07:40.126Z,0.30
2024-02-10T06:10:10.853Z,0.52
2024-02-10T06:12:40.104Z,0.52
2024-02-10T06:15:11.213Z,0.43
2024-02-10T06:17:39.798Z,0.43
2024-02-10T06:20:13.799Z,0.25
2024-02-10T06:22:42.317Z,0.22
2024-02-10T06:25:12.803Z,0.30
2024-02-10T06:27:42.696Z,0.20
2024-02-10T06:30:15.025Z,0.30
2024-02-10T06:32:42.886Z,0.20
2024-02-10T06:35:10.975Z,0.20
2024-02-10T06:37:38.875Z,0.55
2024-02-10T06:40:09.659Z,0.20
2024-02-10T06:42:38.150Z,0.30
2024-02-10T06:45:09.124Z,0.40
2024-02-10T06:47:38.118Z,0.38
2024-02-10T06:50:06.471Z,0.20
2024-02-10T06:52:38.060Z,0.45
2024-02-10T06:55:08.461Z,0.28
2024-02-10T06:57:42.687Z,0.30
2024-02-10T07:00:11.622Z,0.20
2024-02-10T07:02:44.085Z,0.30
2024-02-10T07:05:13.983Z,0.43
2024-02-10T07:07:43.014Z,0.30
2024-02-10T07:10:14.407Z,0.30
2024-02-10T07:12:43.685Z,0.30
2024-02-10T07:15:14.161Z,0.65
2024-02-10T07:17:44.856Z,0.50
2024-02-10T07:20:16.301Z,0.30
2024-02-10T07:22:43.937Z,0.35
2024-02-10T07:25:12.705Z,0.30
2024-02-10T07:27:40.337Z,0.20
2024-02-10T07:30:09.027Z,0.20
2024-02-10T07:32:36.580Z,0.30
2024-02-10T07:35:07.181Z,0.22
2024-02-10T07:37:35.702Z,0.38
2024-02-10T07:40:04.160Z,0.30
2024-02-10T07:42:31.755Z,0.40
2024-02-10T07:45:00.362Z,0.20
2024-02-10T07:47:28.322Z,0.43
2024-02-10T07:49:56.112Z,0.30
2024-02-10T07:52:25.010Z,0.30
2024-02-10T07:54:52.517Z,0.40
2024-02-10T07:57:21.714Z,0.22
2024-02-10T07:59:49.903Z,0.43
2024-02-10T08:02:21.257Z,0.43
2024-02-10T08:04:51.107Z,0.40
2024-02-10T08:07:19.683Z,0.30
2024-02-10T08:09:48.676Z,0.30
2024-02-10T08:12:19.020Z,0.30
2024-02-10T08:14:51.248Z,0.30
2024-02-10T08:17:18.857Z,0.60
2024-02-10T08:19:46.559Z,0.50
2024-02-10T08:22:14.901Z,0.75
2024-02-10T08:24:44.582Z,0.47
2024-02-10T08:27:17.275Z,0.32
2024-02-10T08:29:45.166Z,0.40
2024-02-10T08:32:14.334Z,0.47
2024-02-10T08:34:44.258Z,0.55
2024-02-10T08:37:13.442Z,0.40
2024-02-10T08:39:42.317Z,0.40
2024-02-10T08:42:11.120Z,0.30
2024-02-10T08:44:40.246Z,0.35
2024-02-10T08:47:08.378Z,0.40
2024-02-10T08:49:36.463Z,0.50
2024-02-10T08:52:11.622Z,0.30
2024-02-10T08:54:43.732Z,0.30
2024-02-10T08:57:11.748Z,0.63
2024-02-10T08:59:46.670Z,0.43
2024-02-10T09:02:14.306Z,0.63
2024-02-10T09:04:42.022Z,0.43
2024-02-10T09:07:09.934Z,0.35
2024-02-10T09:09:37.718Z,0.40
2024-02-10T09:12:06.188Z,0.40
2024-02-10T09:14:34.884Z,0.55
2024-02-10T09:17:04.330Z,0.55
2024-02-10T09:19:38.147Z,0.38
2024-02-10T09:22:06.218Z,0.50
2024-02-10T09:24:36.056Z,0.43
2024-02-10T09:27:05.214Z,0.43
2024-02-10T09:29:32.979Z,0.32
2024-02-10T09:32:01.943Z,0.35
2024-02-10T09:34:31.429Z,0.35
2024-02-10T09:37:00.344Z,0.30
2024-02-10T09:39:28.446Z,0.40
2024-02-10T09:42:05.263Z,0.45
2024-02-10T09:44:35.138Z,0.30
2024-02-10T09:47:03.485Z,0.20
2024-02-10T09:49:34.931Z,0.50
2024-02-10T09:52:02.551Z,0.20
2024-02-10T09:54:30.099Z,0.32
2024-02-10T09:56:58.428Z,0.30
2024-02-10T09:59:26.656Z,0.40
2024-02-10T10:01:56.364Z,0.32
2024-02-10T10:04:24.154Z,0.65
2024-02-10T10:06:53.056Z,0.32
2024-02-10T10:09:21.190Z,0.35
2024-02-10T10:11:51.666Z,0.20
2024-02-10T10:14:20.060Z,0.30
2024-02-10T10:16:57.512Z,0.43
2024-02-10T10:19:27.398Z,0.60
2024-02-10T10:21:57.167Z,0.40
2024-02-10T10:24:24.923Z,0.32
2024-02-10T10:26:55.621Z,0.32
2024-02-10T10:29:23.714Z,0.50
2024-02-10T10:31:51.544Z,0.32
2024-02-10T10:34:21.243Z,0.28
2024-02-10T10:36:50.286Z,0.50
2024-02-10T10:39:20.744Z,0.30
2024-02-10T10:41:48.379Z,0.45
2024-02-10T10:44:18.152Z,0.50
2024-02-10T10:46:47.344Z,0.52
2024-02-10T10:49:17.020Z,0.38
2024-02-10T10:51:53.426Z,0.30
2024-02-10T10:54:25.192Z,0.52
2024-02-10T10:56:53.044Z,0.40
2024-02-10T10:59:21.879Z,0.45
2024-02-10T11:01:49.817Z,0.50
2024-02-10T11:04:19.249Z,0.52
2024-02-10T11:06:47.002Z,0.20
2024-02-10T11:09:17.338Z,0.32
2024-02-10T11:11:48.216Z,0.45
2024-02-10T11:14:15.743Z,0.32
2024-02-10T11:16:44.344Z,0.43
2024-02-10T11:19:17.111Z,0.32
2024-02-10T11:21:47.734Z,0.32
2024-02-10T11:24:19.407Z,0.35
2024-02-10T11:26:48.677Z,0.38
2024-02-10T11:29:19.903Z,0.52
2024-02-10T11:31:49.472Z,0.47
2024-02-10T11:34:19.563Z,0.32
2024-02-10T11:36:53.057Z,0.32
2024-02-10T11:39:21.543Z,0.30
2024-02-10T11:41:50.570Z,0.32
2024-02-10T11:44:18.100Z,0.35
2024-02-10T11:46:47.041Z,0.20
2024-02-10T11:49:14.815Z,0.22
2024-02-10T11:51:43.500Z,0.52
2024-02-10T11:54:11.746Z,0.35
2024-02-10T11:56:39.385Z,0.22
2024-02-10T11:59:08.464Z,0.20
2024-02-10T12:01:36.314Z,0.35
2024-02-10T12:04:05.305Z,0.40
2024-02-10T12:06:35.051Z,0.32
2024-02-10T12:09:05.762Z,0.47
2024-02-10T12:11:33.297Z,0.40
2024-02-10T12:14:01.209Z,0.38
2024-02-10T12:16:35.150Z,0.38
2024-02-10T12:19:05.742Z,1.05
2024-02-10T12:21:33.739Z,0.30
2024-02-10T12:24:05.405Z,0.47
2024-02-10T12:26:33.005Z,0.32
2024-02-10T12:29:00.569Z,0.40
2024-02-10T12:31:28.432Z,0.30
2024-02-10T12:33:57.357Z,0.30
2024-02-10T12:36:32.430Z,0.25
2024-02-10T12:38:59.974Z,0.40
2024-02-10T12:41:27.502Z,0.35
2024-02-10T12:43:55.124Z,0.40
2024-02-10T12:46:22.766Z,0.20
2024-02-10T12:48:51.939Z,0.32
2024-02-10T12:51:22.265Z,0.50
2024-02-10T12:53:55.115Z,0.13
2024-02-10T12:56:23.738Z,0.32
2024-02-10T12:58:51.336Z,0.32
2024-02-10T13:01:18.888Z,0.25
2024-02-10T13:03:46.484Z,0.35
2024-02-10T13:06:14.222Z,0.22
2024-02-10T13:08:43.132Z,0.32
2024-02-10T13:11:10.816Z,0.40
2024-02-10T13:13:38.501Z,0.13
2024-02-10T13:16:08.397Z,0.55
2024-02-10T13:18:41.090Z,0.52
2024-02-10T13:21:16.935Z,0.22
2024-02-10T13:23:45.829Z,0.40
2024-02-10T13:26:13.965Z,0.43
2024-02-10T13:28:44.159Z,0.32
2024-02-10T13:31:12.678Z,0.43
2024-02-10T13:33:42.790Z,0.22
2024-02-10T13:36:15.852Z,0.52
2024-02-10T13:39:00.994Z,0.43
2024-02-10T13:41:47.768Z,0.63
2024-02-10T13:44:32.676Z,0.45
2024-02-10T13:47:17.819Z,0.30
2024-02-10T13:50:03.293Z,0.50
2024-02-10T13:52:48.552Z,0.43
2024-02-10T13:55:33.567Z,0.35
2024-02-10T13:58:10.650Z,0.32
2024-02-10T14:00:40.281Z,0.52
2024-02-10T14:03:07.395Z,0.40
2024-02-10T14:05:56.206Z,0.35
2024-02-10T14:08:43.097Z,0.45
2024-02-10T14:11:21.086Z,0.47
2024-02-10T14:13:52.899Z,0.43
2024-02-10T14:16:28.734Z,0.43
2024-02-10T14:18:57.182Z,0.60
2024-02-10T14:21:33.901Z,0.50
2024-02-10T14:24:02.320Z,0.40
2024-02-10T14:26:53.957Z,0.43
2024-02-10T14:29:32.998Z,0.32
2024-02-10T14:32:10.795Z,0.63
2024-02-10T14:34:39.410Z,0.22
2024-02-10T14:37:28.079Z,0.43
2024-02-10T14:39:57.835Z,0.22
2024-02-10T14:42:26.402Z,0.40
2024-02-10T14:44:55.808Z,0.25
2024-02-10T14:47:25.427Z,0.32
2024-02-10T14:49:53.435Z,0.45
2024-02-10T14:52:23.525Z,0.45
2024-02-10T14:54:51.318Z,0.55
2024-02-10T14:57:19.276Z,0.40
2024-02-10T14:59:47.116Z,0.45
2024-02-10T15:02:16.741Z,0.38
2024-02-10T15:04:48.556Z,0.45
2024-02-10T15:07:16.202Z,0.50
2024-02-10T15:09:43.746Z,0.50
2024-02-10T15:12:12.845Z,0.52
2024-02-10T15:14:40.390Z,0.50
2024-02-10T15:17:14.530Z,0.73
2024-02-10T15:19:44.873Z,0.60
2024-02-10T15:22:16.358Z,0.45
2024-02-10T15:24:44.402Z,0.47
2024-02-10T15:27:14.056Z,0.55
2024-02-10T15:29:41.714Z,0.43
2024-02-10T15:32:10.809Z,0.50
2024-02-10T15:34:47.861Z,0.40
2024-02-10T15:37:25.068Z,0.35
2024-02-10T15:39:53.195Z,0.50
2024-02-10T15:42:20.737Z,0.50
2024-02-10T15:44:48.390Z,0.52
2024-02-10T15:47:19.261Z,0.50
2024-02-10T15:49:47.977Z,0.63
2024-02-10T15:52:16.793Z,0.70
2024-02-10T15:54:45.755Z,0.45
2024-02-10T15:57:13.297Z,0.55
2024-02-10T15:59:42.683Z,0.77
2024-02-10T16:02:10.621Z,0.60
2024-02-10T16:04:40.918Z,0.55
2024-02-10T16:07:08.499Z,0.55
2024-02-10T16:09:36.127Z,0.43
2024-02-10T16:12:08.372Z,0.60
2024-02-10T16:14:37.733Z,0.43
2024-02-10T16:17:05.391Z,0.40
2024-02-10T16:19:40.768Z,0.32
2024-02-10T16:22:08.855Z,0.43
2024-02-10T16:24:36.382Z,0.50
2024-02-10T16:27:06.629Z,0.55
2024-02-10T16:29:34.669Z,0.80
2024-02-10T16:32:02.338Z,0.52
2024-02-10T16:34:30.523Z,0.40
2024-02-10T16:36:59.791Z,0.65
2024-02-10T16:39:28.646Z,0.50
2024-02-10T16:41:57.589Z,0.38
2024-02-10T16:44:26.922Z,0.88
2024-02-10T16:47:00.540Z,0.68
2024-02-10T16:49:29.825Z,0.40
2024-02-10T16:51:57.389Z,0.43
2024-02-10T16:54:24.905Z,0.60
2024-02-10T16:56:53.820Z,0.68
2024-02-10T16:59:22.763Z,0.65
2024-02-10T17:01:53.868Z,0.68
2024-02-10T17:04:23.082Z,0.50
2024-02-10T17:06:50.861Z,0.65
2024-02-10T17:09:18.777Z,0.70
2024-02-10T17:11:46.307Z,0.57
2024-02-10T17:14:13.926Z,0.55
2024-02-10T17:16:41.766Z,0.38
2024-02-10T17:19:12.681Z,0.52
2024-02-10T17:21:41.791Z,0.43
2024-02-10T17:24:10.244Z,0.63
2024-02-10T17:26:38.675Z,0.75
2024-02-10T17:29:12.030Z,0.65
2024-02-10T17:31:40.332Z,0.57
2024-02-10T17:34:08.041Z,0.40
2024-02-10T17:36:38.071Z,0.70
2024-02-10T17:39:07.568Z,0.70
2024-02-10T17:41:38.121Z,0.82
2024-02-10T17:44:06.251Z,0.70
2024-02-10T17:46:35.039Z,0.80
2024-02-10T17:49:02.811Z,0.73
2024-02-10T17:51:32.056Z,0.52
2024-02-10T17:54:01.780Z,0.75
2024-02-10T17:56:29.384Z,0.80
2024-02-10T17:58:56.943Z,0.80
2024-02-10T18:01:26.919Z,1.05
2024-02-10T18:03:55.503Z,0.73
2024-02-10T18:06:24.206Z,0.60
2024-02-10T18:08:51.817Z,0.65
2024-02-10T18:11:20.741Z,0.73
2024-02-10T18:13:50.897Z,0.93
2024-02-10T18:16:18.714Z,0.65
2024-02-10T18:18:49.945Z,0.70
2024-02-10T18:21:18.068Z,0.75
2024-02-10T18:23:45.665Z,0.82
2024-02-10T18:26:13.454Z,0.73
2024-02-10T18:28:43.152Z,0.73
2024-02-10T18:31:10.741Z,0.70
2024-02-10T18:33:38.557Z,0.63
2024-02-10T18:36:07.611Z,0.80
2024-02-10T18:38:35.284Z,0.73
2024-02-10T18:41:02.934Z,0.75
2024-02-10T18:43:31.291Z,0.63
2024-02-10T18:46:01.248Z,0.40
2024-02-10T18:48:29.158Z,0.80
2024-02-10T18:50:58.353Z,0.60
2024-02-10T18:53:25.902Z,1.05
2024-02-10T18:55:54.338Z,0.85
2024-02-10T18:58:22.691Z,0.52
2024-02-10T19:00:51.909Z,0.60
2024-02-10T19:03:21.050Z,0.75
2024-02-10T19:05:49.457Z,0.65
2024-02-10T19:08:17.454Z,0.75
2024-02-10T19:10:45.477Z,0.82
2024-02-10T19:13:15.315Z,0.73
2024-02-10T19:15:42.999Z,1.08
2024-02-10T19:18:10.977Z,0.50
2024-02-10T19:20:39.858Z,0.82
2024-02-10T19:23:07.734Z,0.90
2024-02-10T19:25:35.402Z,0.70
2024-02-10T19:28:04.527Z,0.82
2024-02-10T19:30:32.148Z,0.82
2024-02-10T19:32:59.777Z,0.80
2024-02-10T19:35:28.887Z,0.90
2024-02-10T19:37:57.992Z,0.90
2024-02-10T19:40:25.799Z,0.82
2024-02-10T19:42:56.089Z,0.82
2024-02-10T19:45:26.386Z,0.73
2024-02-10T19:47:54.817Z,0.82
2024-02-10T19:50:22.679Z,0.77
2024-02-10T19:52:50.457Z,0.90
2024-02-10T19:55:20.791Z,0.60
2024-02-10T19:57:48.687Z,0.75
2024-02-10T20:00:17.954Z,0.73
2024-02-10T20:02:45.500Z,0.82
2024-02-10T20:05:14.255Z,0.75
2024-02-10T20:07:43.415Z,0.73
2024-02-10T20:10:14.259Z,0.80
2024-02-10T20:12:43.720Z,0.85
2024-02-10T20:15:12.432Z,0.70
2024-02-10T20:17:42.164Z,0.63
2024-02-10T20:20:12.117Z,0.93
2024-02-10T20:22:39.757Z,1.00
2024-02-10T20:25:08.960Z,0.88
2024-02-10T20:27:36.481Z,0.80
2024-02-10T20:30:08.412Z,0.93
2024-02-10T20:32:36.013Z,0.80
2024-02-10T20:35:03.861Z,0.82
2024-02-10T20:37:31.481Z,0.60
2024-02-10T20:39:58.994Z,1.30
2024-02-10T20:42:27.415Z,0.75
2024-02-10T20:44:55.101Z,0.85
2024-02-10T20:47:24.051Z,0.93
2024-02-10T20:49:53.181Z,0.95
2024-02-10T20:52:20.819Z,0.73
2024-02-10T20:54:49.373Z,1.10
2024-02-10T20:57:17.848Z,0.95
2024-02-10T20:59:45.400Z,0.98
2024-02-10T21:02:14.083Z,0.85
2024-02-10T21:04:45.947Z,0.85
2024-02-10T21:07:13.776Z,0.73
2024-02-10T21:09:41.299Z,0.88
2024-02-10T21:12:11.151Z,0.88
2024-02-10T21:14:44.890Z,0.75
2024-02-10T21:17:12.722Z,0.93
2024-02-10T21:19:40.340Z,1.08
2024-02-10T21:22:09.279Z,0.95
2024-02-10T21:24:36.846Z,0.93
2024-02-10T21:27:05.951Z,0.93
2024-02-10T21:29:33.486Z,1.02
2024-02-10T21:32:01.066Z,0.85
2024-02-10T21:34:28.790Z,0.82
2024-02-10T21:36:57.489Z,0.80
2024-02-10T21:39:27.202Z,1.17
2024-02-10T21:41:55.498Z,1.02
2024-02-10T21:44:23.335Z,0.93
2024-02-10T21:46:51.709Z,1.02
2024-02-10T21:49:19.365Z,1.05
2024-02-10T21:51:52.008Z,0.75
2024-02-10T21:54:19.723Z,1.20
2024-02-10T21:56:48.956Z,1.10
2024-02-10T21:59:17.178Z,1.13
2024-02-10T22:01:49.718Z,1.10
2024-02-10T22:06:44.992Z,1.27
2024-02-10T22:09:12.766Z,1.00
2024-02-10T22:11:40.335Z,0.80
2024-02-10T22:14:10.920Z,1.00
2024-02-10T22:16:38.857Z,0.88
2024-02-10T22:19:06.534Z,0.93
2024-02-10T22:21:34.099Z,0.88
2024-02-10T22:24:01.635Z,0.70
2024-02-10T22:26:31.878Z,1.20
2024-02-10T22:29:00.028Z,0.85
2024-02-10T22:31:36.873Z,0.75
2024-02-10T22:34:05.367Z,0.88
2024-02-10T22:36:34.724Z,0.80
2024-02-10T22:39:13.498Z,0.80
2024-02-10T22:41:42.021Z,1.02
2024-02-10T22:44:11.763Z,0.82
2024-02-10T22:46:43.360Z,0.82
2024-02-10T22:49:11.496Z,0.70
2024-02-10T22:51:39.279Z,0.80
2024-02-10T22:54:07.101Z,0.80
2024-02-10T22:56:35.616Z,0.82
2024-02-10T22:59:03.538Z,0.57
2024-02-10T23:01:32.645Z,1.00
2024-02-10T23:04:02.316Z,0.82
2024-02-10T23:06:32.779Z,0.80
2024-02-10T23:09:03.146Z,0.77
2024-02-10T23:11:31.772Z,0.98
2024-02-10T23:13:59.313Z,0.75
2024-02-10T23:16:28.206Z,0.57
2024-02-10T23:18:57.509Z,0.60
2024-02-10T23:21:27.681Z,0.63
2024-02-10T23:23:59.942Z,0.63
2024-02-10T23:26:27.933Z,0.60
2024-02-10T23:28:57.560Z,0.88
2024-02-10T23:31:27.646Z,0.75
2024-02-10T23:33:55.318Z,0.93
2024-02-10T23:36:26.251Z,0.85
2024-02-10T23:38:59.185Z,0.90
2024-02-10T23:41:28.869Z,0.95
2024-02-10T23:43:56.517Z,0.75
2024-02-10T23:46:24.244Z,0.68
2024-02-10T23:48:55.398Z,0.70
2024-02-10T23:51:23.825Z,0.88
2024-02-10T23:53:53.629Z,0.73
2024-02-10T23:56:23.118Z,0.85
2024-02-10T23:58:51.712Z,0.60
